sensor_id;sensor_type;location;lat;lon;timestamp;pressure;altitude;pressure_sealevel;temperature;humidity
39105;BME280;46464;51.154;13.812;2022-08-25T00:01:45;99750.00;;;16.80;100.00
39105;BME280;46464;51.154;13.812;2022-08-25T00:04:14;99744.88;;;16.75;100.00
39105;BME280;46464;51.154;13.812;2022-08-25T00:06:43;99742.97;;;16.62;100.00
39105;BME280;46464;51.154;13.812;2022-08-25T00:09:11;99738.91;;;16.55;100.00
39105;BME280;46464;51.154;13.812;2022-08-25T00:11:38;99732.81;;;16.52;100.00
39105;BME280;46464;51.154;13.812;2022-08-25T00:14:07;99736.72;;;16.48;100.00
39105;BME280;46464;51.154;13.812;2022-08-25T00:16:34;99738.53;;;16.47;100.00
39105;BME280;46464;51.154;13.812;2022-08-25T00:19:02;99732.16;;;16.48;100.00
39105;BME280;46464;51.154;13.812;2022-08-25T00:21:29;99734.97;;;16.46;100.00
39105;BME280;46464;51.154;13.812;2022-08-25T00:23:57;99739.63;;;16.44;100.00
39105;BME280;46464;51.154;13.812;2022-08-25T00:26:23;99740.50;;;16.45;100.00
39105;BME280;46464;51.154;13.812;2022-08-25T00:28:51;99741.38;;;16.45;100.00
39105;BME280;46464;51.154;13.812;2022-08-25T00:31:26;99735.94;;;16.45;100.00
39105;BME280;46464;51.154;13.812;2022-08-25T00:34:06;99734.97;;;16.46;100.00
39105;BME280;46464;51.154;13.812;2022-08-25T00:36:33;99736.72;;;16.48;100.00
39105;BME280;46464;51.154;13.812;2022-08-25T00:39:00;99737.69;;;16.46;100.00
39105;BME280;46464;51.154;13.812;2022-08-25T00:41:26;99737.81;;;16.45;100.00
39105;BME280;46464;51.154;13.812;2022-08-25T00:43:54;99735.09;;;16.45;100.00
39105;BME280;46464;51.154;13.812;2022-08-25T00:46:26;99732.25;;;16.46;100.00
39105;BME280;46464;51.154;13.812;2022-08-25T00:48:58;99735.84;;;16.47;100.00
39105;BME280;46464;51.154;13.812;2022-08-25T00:52:00;99733.13;;;16.47;100.00
39105;BME280;46464;51.154;13.812;2022-08-25T00:54:19;99728.69;;;16.46;100.00
39105;BME280;46464;51.154;13.812;2022-08-25T00:56:47;99723.28;;;16.46;100.00
39105;BME280;46464;51.154;13.812;2022-08-25T00:59:14;99724.34;;;16.43;100.00
39105;BME280;46464;51.154;13.812;2022-08-25T01:01:41;99721.38;;;16.34;100.00
39105;BME280;46464;51.154;13.812;2022-08-25T01:04:08;99721.66;;;16.29;100.00
39105;BME280;46464;51.154;13.812;2022-08-25T01:06:35;99729.72;;;16.16;100.00
39105;BME280;46464;51.154;13.812;2022-08-25T01:09:03;99737.66;;;16.05;100.00
39105;BME280;46464;51.154;13.812;2022-08-25T01:11:30;99734.00;;;16.06;100.00
39105;BME280;46464;51.154;13.812;2022-08-25T01:13:56;99728.00;;;16.01;100.00
39105;BME280;46464;51.154;13.812;2022-08-25T01:16:24;99717.44;;;15.96;100.00
39105;BME280;46464;51.154;13.812;2022-08-25T01:18:52;99717.56;;;15.94;100.00
39105;BME280;46464;51.154;13.812;2022-08-25T01:21:19;99723.84;;;15.95;100.00
39105;BME280;46464;51.154;13.812;2022-08-25T01:23:47;99719.31;;;15.95;100.00
39105;BME280;46464;51.154;13.812;2022-08-25T01:26:18;99720.06;;;15.97;100.00
39105;BME280;46464;51.154;13.812;2022-08-25T01:28:55;99716.59;;;15.95;100.00
39105;BME280;46464;51.154;13.812;2022-08-25T01:31:41;99720.56;;;15.90;100.00
39105;BME280;46464;51.154;13.812;2022-08-25T01:34:08;99715.34;;;15.87;100.00
39105;BME280;46464;51.154;13.812;2022-08-25T01:36:35;99712.63;;;15.87;100.00
39105;BME280;46464;51.154;13.812;2022-08-25T01:39:01;99718.81;;;15.89;100.00
39105;BME280;46464;51.154;13.812;2022-08-25T01:43:54;99719.69;;;15.89;100.00
39105;BME280;46464;51.154;13.812;2022-08-25T01:46:21;99714.19;;;15.91;100.00
39105;BME280;46464;51.154;13.812;2022-08-25T01:48:48;99719.47;;;15.92;100.00
39105;BME280;46464;51.154;13.812;2022-08-25T01:51:15;99722.13;;;15.94;100.00
39105;BME280;46464;51.154;13.812;2022-08-25T01:53:41;99717.34;;;15.97;100.00
39105;BME280;46464;51.154;13.812;2022-08-25T01:56:10;99707.28;;;16.00;100.00
39105;BME280;46464;51.154;13.812;2022-08-25T01:58:38;99711.75;;;16.01;100.00
39105;BME280;46464;51.154;13.812;2022-08-25T02:01:06;99710.69;;;16.03;100.00
39105;BME280;46464;51.154;13.812;2022-08-25T02:03:36;99708.75;;;16.05;100.00
39105;BME280;46464;51.154;13.812;2022-08-25T02:06:07;99707.69;;;16.08;100.00
39105;BME280;46464;51.154;13.812;2022-08-25T02:08:33;99715.69;;;16.09;100.00
39105;BME280;46464;51.154;13.812;2022-08-25T02:11:00;99707.69;;;16.08;100.00
39105;BME280;46464;51.154;13.812;2022-08-25T02:13:27;99715.81;;;16.08;100.00
39105;BME280;46464;51.154;13.812;2022-08-25T02:15:58;99713.09;;;16.08;100.00
39105;BME280;46464;51.154;13.812;2022-08-25T02:18:26;99704.97;;;16.08;100.00
39105;BME280;46464;51.154;13.812;2022-08-25T02:20:52;99703.22;;;16.07;100.00
39105;BME280;46464;51.154;13.812;2022-08-25T02:23:19;99702.38;;;16.06;100.00
39105;BME280;46464;51.154;13.812;2022-08-25T02:25:46;99697.59;;;16.10;100.00
39105;BME280;46464;51.154;13.812;2022-08-25T02:28:12;99703.50;;;16.17;100.00
39105;BME280;46464;51.154;13.812;2022-08-25T02:30:40;99704.06;;;16.22;100.00
39105;BME280;46464;51.154;13.812;2022-08-25T02:33:07;99692.03;;;16.26;100.00
39105;BME280;46464;51.154;13.812;2022-08-25T02:35:34;99695.41;;;16.29;100.00
39105;BME280;46464;51.154;13.812;2022-08-25T02:38:01;99696.09;;;16.33;100.00
39105;BME280;46464;51.154;13.812;2022-08-25T02:40:27;99692.50;;;16.33;100.00
39105;BME280;46464;51.154;13.812;2022-08-25T02:42:54;99699.56;;;16.35;100.00
39105;BME280;46464;51.154;13.812;2022-08-25T02:45:20;99700.34;;;16.37;100.00
39105;BME280;46464;51.154;13.812;2022-08-25T02:47:47;99706.53;;;16.39;100.00
39105;BME280;46464;51.154;13.812;2022-08-25T02:50:13;99703.69;;;16.41;100.00
39105;BME280;46464;51.154;13.812;2022-08-25T02:52:40;99708.94;;;16.44;100.00
39105;BME280;46464;51.154;13.812;2022-08-25T02:55:09;99712.31;;;16.48;100.00
39105;BME280;46464;51.154;13.812;2022-08-25T02:57:38;99708.63;;;16.49;100.00
39105;BME280;46464;51.154;13.812;2022-08-25T03:00:05;99704.06;;;16.49;100.00
39105;BME280;46464;51.154;13.812;2022-08-25T03:02:32;99703.97;;;16.51;100.00
39105;BME280;46464;51.154;13.812;2022-08-25T03:04:58;99705.59;;;16.53;100.00
39105;BME280;46464;51.154;13.812;2022-08-25T03:07:25;99702.81;;;16.55;100.00
39105;BME280;46464;51.154;13.812;2022-08-25T03:09:52;99702.69;;;16.56;100.00
39105;BME280;46464;51.154;13.812;2022-08-25T03:12:19;99699.00;;;16.57;100.00
39105;BME280;46464;51.154;13.812;2022-08-25T03:14:47;99697.38;;;16.55;100.00
39105;BME280;46464;51.154;13.812;2022-08-25T03:17:14;99695.22;;;16.60;100.00
39105;BME280;46464;51.154;13.812;2022-08-25T03:19:41;99688.72;;;16.62;100.00
39105;BME280;46464;51.154;13.812;2022-08-25T03:22:07;99688.84;;;16.61;100.00
39105;BME280;46464;51.154;13.812;2022-08-25T03:24:34;99688.16;;;16.57;100.00
39105;BME280;46464;51.154;13.812;2022-08-25T03:27:00;99688.06;;;16.59;100.00
39105;BME280;46464;51.154;13.812;2022-08-25T03:29:29;99683.19;;;16.64;100.00
39105;BME280;46464;51.154;13.812;2022-08-25T03:31:56;99680.94;;;16.71;100.00
39105;BME280;46464;51.154;13.812;2022-08-25T03:34:27;99675.41;;;16.72;100.00
39105;BME280;46464;51.154;13.812;2022-08-25T03:36:54;99676.50;;;16.70;100.00
39105;BME280;46464;51.154;13.812;2022-08-25T03:39:22;99673.00;;;16.68;100.00
39105;BME280;46464;51.154;13.812;2022-08-25T03:41:49;99672.22;;;16.66;100.00
39105;BME280;46464;51.154;13.812;2022-08-25T03:44:17;99672.22;;;16.66;100.00
39105;BME280;46464;51.154;13.812;2022-08-25T03:46:47;99666.25;;;16.60;100.00
39105;BME280;46464;51.154;13.812;2022-08-25T03:49:15;99679.81;;;16.60;100.00
39105;BME280;46464;51.154;13.812;2022-08-25T03:51:43;99675.47;;;16.58;100.00
39105;BME280;46464;51.154;13.812;2022-08-25T03:54:12;99679.25;;;16.55;100.00
39105;BME280;46464;51.154;13.812;2022-08-25T03:56:39;99682.19;;;16.52;100.00
39105;BME280;46464;51.154;13.812;2022-08-25T03:59:06;99682.47;;;16.48;100.00
39105;BME280;46464;51.154;13.812;2022-08-25T04:01:36;99680.06;;;16.43;100.00
39105;BME280;46464;51.154;13.812;2022-08-25T04:04:04;99680.59;;;16.35;100.00
39105;BME280;46464;51.154;13.812;2022-08-25T04:06:31;99670.72;;;16.34;100.00
39105;BME280;46464;51.154;13.812;2022-08-25T04:08:57;99677.41;;;16.28;100.00
39105;BME280;46464;51.154;13.812;2022-08-25T04:11:24;99673.84;;;16.28;100.00
39105;BME280;46464;51.154;13.812;2022-08-25T04:13:51;99680.31;;;16.25;100.00
39105;BME280;46464;51.154;13.812;2022-08-25T04:16:20;99675.03;;;16.24;100.00
39105;BME280;46464;51.154;13.812;2022-08-25T04:18:47;99676.75;;;16.25;100.00
39105;BME280;46464;51.154;13.812;2022-08-25T04:21:15;99675.97;;;16.23;100.00
39105;BME280;46464;51.154;13.812;2022-08-25T04:23:43;99677.16;;;16.19;100.00
39105;BME280;46464;51.154;13.812;2022-08-25T04:26:10;99676.69;;;16.12;100.00
39105;BME280;46464;51.154;13.812;2022-08-25T04:28:37;99676.69;;;16.12;100.00
39105;BME280;46464;51.154;13.812;2022-08-25T04:31:04;99672.91;;;16.14;100.00
39105;BME280;46464;51.154;13.812;2022-08-25T04:33:31;99670.97;;;16.17;100.00
39105;BME280;46464;51.154;13.812;2022-08-25T04:35:57;99675.31;;;16.19;100.00
39105;BME280;46464;51.154;13.812;2022-08-25T04:38:24;99677.72;;;16.24;100.00
39105;BME280;46464;51.154;13.812;2022-08-25T04:40:55;99681.00;;;16.29;100.00
39105;BME280;46464;51.154;13.812;2022-08-25T04:43:21;99679.69;;;16.35;100.00
39105;BME280;46464;51.154;13.812;2022-08-25T04:45:48;99681.03;;;16.42;100.00
39105;BME280;46464;51.154;13.812;2022-08-25T04:48:14;99668.72;;;16.51;100.00
39105;BME280;46464;51.154;13.812;2022-08-25T04:50:41;99661.03;;;16.57;100.00
39105;BME280;46464;51.154;13.812;2022-08-25T04:53:09;99670.41;;;16.66;100.00
39105;BME280;46464;51.154;13.812;2022-08-25T04:55:40;99666.97;;;16.77;100.00
39105;BME280;46464;51.154;13.812;2022-08-25T04:58:06;99670.66;;;16.89;100.00
39105;BME280;46464;51.154;13.812;2022-08-25T05:00:40;99674.50;;;16.99;100.00
39105;BME280;46464;51.154;13.812;2022-08-25T05:03:07;99683.66;;;17.11;100.00
39105;BME280;46464;51.154;13.812;2022-08-25T05:05:36;99678.44;;;17.21;100.00
39105;BME280;46464;51.154;13.812;2022-08-25T05:08:04;99677.59;;;17.33;100.00
39105;BME280;46464;51.154;13.812;2022-08-25T05:10:31;99678.88;;;17.40;100.00
39105;BME280;46464;51.154;13.812;2022-08-25T05:12:58;99685.50;;;17.49;100.00
39105;BME280;46464;51.154;13.812;2022-08-25T05:15:25;99687.34;;;17.62;100.00
39105;BME280;46464;51.154;13.812;2022-08-25T05:18:11;99689.94;;;17.76;100.00
39105;BME280;46464;51.154;13.812;2022-08-25T05:20:38;99691.75;;;17.88;100.00
39105;BME280;46464;51.154;13.812;2022-08-25T05:23:05;99691.00;;;17.99;100.00
39105;BME280;46464;51.154;13.812;2022-08-25T05:25:33;99684.22;;;18.18;100.00
39105;BME280;46464;51.154;13.812;2022-08-25T05:27:59;99689.50;;;18.57;100.00
39105;BME280;46464;51.154;13.812;2022-08-25T05:30:26;99696.50;;;18.96;100.00
39105;BME280;46464;51.154;13.812;2022-08-25T05:32:53;99693.94;;;19.06;100.00
39105;BME280;46464;51.154;13.812;2022-08-25T05:35:19;99698.81;;;19.14;100.00
39105;BME280;46464;51.154;13.812;2022-08-25T05:37:46;99686.59;;;19.42;100.00
39105;BME280;46464;51.154;13.812;2022-08-25T05:40:12;99689.84;;;19.81;100.00
39105;BME280;46464;51.154;13.812;2022-08-25T05:42:40;99687.81;;;20.29;100.00
39105;BME280;46464;51.154;13.812;2022-08-25T05:45:07;99689.22;;;20.67;100.00
39105;BME280;46464;51.154;13.812;2022-08-25T05:47:40;99692.41;;;21.05;100.00
39105;BME280;46464;51.154;13.812;2022-08-25T05:50:07;99686.69;;;21.29;99.70
39105;BME280;46464;51.154;13.812;2022-08-25T05:52:34;99685.63;;;21.63;96.94
39105;BME280;46464;51.154;13.812;2022-08-25T05:55:01;99690.13;;;22.04;95.52
39105;BME280;46464;51.154;13.812;2022-08-25T05:57:27;99682.97;;;22.23;92.15
39105;BME280;46464;51.154;13.812;2022-08-25T05:59:54;99682.47;;;22.39;91.50
39105;BME280;46464;51.154;13.812;2022-08-25T06:02:20;99683.06;;;22.43;91.06
39105;BME280;46464;51.154;13.812;2022-08-25T06:05:06;99686.00;;;22.30;91.30
39105;BME280;46464;51.154;13.812;2022-08-25T06:07:34;99684.34;;;22.07;92.72
39105;BME280;46464;51.154;13.812;2022-08-25T06:10:02;99671.00;;;21.73;93.64
39105;BME280;46464;51.154;13.812;2022-08-25T06:12:31;99677.22;;;21.33;95.75
39105;BME280;46464;51.154;13.812;2022-08-25T06:14:58;99674.09;;;21.17;98.26
39105;BME280;46464;51.154;13.812;2022-08-25T06:17:24;99671.84;;;21.01;98.67
39105;BME280;46464;51.154;13.812;2022-08-25T06:19:51;99675.63;;;20.88;100.00
39105;BME280;46464;51.154;13.812;2022-08-25T06:22:18;99674.16;;;20.84;100.00
39105;BME280;46464;51.154;13.812;2022-08-25T06:24:46;99676.16;;;20.71;100.00
39105;BME280;46464;51.154;13.812;2022-08-25T06:27:13;99672.81;;;20.78;100.00
39105;BME280;46464;51.154;13.812;2022-08-25T06:29:39;99679.25;;;20.77;100.00
39105;BME280;46464;51.154;13.812;2022-08-25T06:32:07;99685.25;;;20.71;100.00
39105;BME280;46464;51.154;13.812;2022-08-25T06:34:34;99680.66;;;20.72;100.00
39105;BME280;46464;51.154;13.812;2022-08-25T06:37:00;99678.56;;;20.64;100.00
39105;BME280;46464;51.154;13.812;2022-08-25T06:39:27;99674.41;;;20.81;100.00
39105;BME280;46464;51.154;13.812;2022-08-25T06:41:54;99678.78;;;20.72;100.00
39105;BME280;46464;51.154;13.812;2022-08-25T06:44:22;99673.56;;;20.69;100.00
39105;BME280;46464;51.154;13.812;2022-08-25T06:46:49;99674.88;;;20.86;100.00
39105;BME280;46464;51.154;13.812;2022-08-25T06:49:16;99674.34;;;20.92;100.00
39105;BME280;46464;51.154;13.812;2022-08-25T06:51:42;99670.09;;;21.00;100.00
39105;BME280;46464;51.154;13.812;2022-08-25T06:54:09;99674.03;;;21.07;100.00
39105;BME280;46464;51.154;13.812;2022-08-25T06:56:35;99675.97;;;21.16;100.00
39105;BME280;46464;51.154;13.812;2022-08-25T06:59:02;99671.16;;;21.29;100.00
39105;BME280;46464;51.154;13.812;2022-08-25T07:01:29;99666.03;;;21.36;100.00
39105;BME280;46464;51.154;13.812;2022-08-25T07:03:58;99678.16;;;21.43;100.00
39105;BME280;46464;51.154;13.812;2022-08-25T07:06:25;99677.88;;;21.47;100.00
39105;BME280;46464;51.154;13.812;2022-08-25T07:08:52;99669.97;;;21.65;100.00
39105;BME280;46464;51.154;13.812;2022-08-25T07:11:19;99668.53;;;21.70;100.00
39105;BME280;46464;51.154;13.812;2022-08-25T07:13:48;99668.56;;;21.80;100.00
39105;BME280;46464;51.154;13.812;2022-08-25T07:16:16;99669.63;;;21.89;100.00
39105;BME280;46464;51.154;13.812;2022-08-25T07:18:45;99675.56;;;22.04;100.00
39105;BME280;46464;51.154;13.812;2022-08-25T07:21:12;99667.25;;;22.25;99.15
39105;BME280;46464;51.154;13.812;2022-08-25T07:23:39;99666.75;;;22.41;98.41
39105;BME280;46464;51.154;13.812;2022-08-25T07:26:07;99665.63;;;22.63;96.27
39105;BME280;46464;51.154;13.812;2022-08-25T07:28:46;99660.31;;;22.81;96.10
39105;BME280;46464;51.154;13.812;2022-08-25T07:31:13;99663.31;;;22.88;95.96
39105;BME280;46464;51.154;13.812;2022-08-25T07:33:39;99666.38;;;22.95;96.89
39105;BME280;46464;51.154;13.812;2022-08-25T07:36:25;99662.75;;;23.24;94.38
39105;BME280;46464;51.154;13.812;2022-08-25T07:38:53;99661.66;;;23.44;94.65
39105;BME280;46464;51.154;13.812;2022-08-25T07:41:20;99666.09;;;23.65;93.79
39105;BME280;46464;51.154;13.812;2022-08-25T07:43:46;99659.41;;;23.77;92.00
39105;BME280;46464;51.154;13.812;2022-08-25T07:46:15;99657.19;;;23.91;93.16
39105;BME280;46464;51.154;13.812;2022-08-25T07:48:44;99648.16;;;24.08;92.39
39105;BME280;46464;51.154;13.812;2022-08-25T07:51:18;99653.88;;;24.15;90.90
39105;BME280;46464;51.154;13.812;2022-08-25T07:53:45;99655.56;;;24.26;89.17
39105;BME280;46464;51.154;13.812;2022-08-25T07:56:13;99650.94;;;24.26;88.72
39105;BME280;46464;51.154;13.812;2022-08-25T07:58:41;99655.56;;;24.26;88.23
39105;BME280;46464;51.154;13.812;2022-08-25T08:01:15;99654.25;;;24.30;87.97
39105;BME280;46464;51.154;13.812;2022-08-25T08:03:43;99652.75;;;24.36;89.63
39105;BME280;46464;51.154;13.812;2022-08-25T08:06:17;99653.63;;;24.54;91.33
39105;BME280;46464;51.154;13.812;2022-08-25T08:08:44;99652.50;;;24.75;91.16
39105;BME280;46464;51.154;13.812;2022-08-25T08:11:14;99645.88;;;24.86;89.04
39105;BME280;46464;51.154;13.812;2022-08-25T08:13:42;99653.81;;;24.89;86.94
39105;BME280;46464;51.154;13.812;2022-08-25T08:16:10;99652.16;;;24.78;85.46
39105;BME280;46464;51.154;13.812;2022-08-25T08:18:38;99655.53;;;24.72;85.84
39105;BME280;46464;51.154;13.812;2022-08-25T08:21:09;99650.81;;;24.64;86.09
39105;BME280;46464;51.154;13.812;2022-08-25T08:23:36;99646.78;;;24.58;86.71
39105;BME280;46464;51.154;13.812;2022-08-25T08:26:03;99645.31;;;24.64;86.35
39105;BME280;46464;51.154;13.812;2022-08-25T08:28:30;99644.19;;;24.67;86.34
39105;BME280;46464;51.154;13.812;2022-08-25T08:30:56;99639.41;;;24.69;84.66
39105;BME280;46464;51.154;13.812;2022-08-25T08:33:23;99641.81;;;24.72;85.20
39105;BME280;46464;51.154;13.812;2022-08-25T08:36:00;99633.41;;;24.73;85.81
39105;BME280;46464;51.154;13.812;2022-08-25T08:38:30;99632.25;;;24.76;84.56
39105;BME280;46464;51.154;13.812;2022-08-25T08:47:03;99629.50;;;24.76;84.04
39105;BME280;46464;51.154;13.812;2022-08-25T08:49:36;99627.44;;;24.78;83.13
39105;BME280;46464;51.154;13.812;2022-08-25T08:52:08;99627.59;;;24.76;83.28
39105;BME280;46464;51.154;13.812;2022-08-25T08:54:36;99626.50;;;24.69;83.38
39105;BME280;46464;51.154;13.812;2022-08-25T08:57:17;99620.16;;;24.69;83.20
39105;BME280;46464;51.154;13.812;2022-08-25T08:59:49;99615.84;;;24.66;83.52
39105;BME280;46464;51.154;13.812;2022-08-25T09:02:41;99617.56;;;24.67;83.38
39105;BME280;46464;51.154;13.812;2022-08-25T09:05:17;99617.31;;;24.60;81.90
39105;BME280;46464;51.154;13.812;2022-08-25T09:07:47;99611.72;;;24.52;82.10
39105;BME280;46464;51.154;13.812;2022-08-25T09:10:19;99603.56;;;24.60;82.49
39105;BME280;46464;51.154;13.812;2022-08-25T09:21:26;99601.16;;;25.46;78.38
39105;BME280;46464;51.154;13.812;2022-08-25T09:26:35;99591.88;;;25.82;75.47
39105;BME280;46464;51.154;13.812;2022-08-25T09:29:08;99590.72;;;25.92;73.33
39105;BME280;46464;51.154;13.812;2022-08-25T09:31:42;99588.09;;;25.91;74.33
39105;BME280;46464;51.154;13.812;2022-08-25T09:34:12;99592.75;;;25.90;74.29
39105;BME280;46464;51.154;13.812;2022-08-25T09:36:39;99585.03;;;25.94;73.99
39105;BME280;46464;51.154;13.812;2022-08-25T09:39:06;99583.31;;;25.93;73.74
39105;BME280;46464;51.154;13.812;2022-08-25T09:41:40;99588.31;;;25.98;71.92
39105;BME280;46464;51.154;13.812;2022-08-25T09:46:58;99578.81;;;25.92;73.32
39105;BME280;46464;51.154;13.812;2022-08-25T09:49:37;99582.59;;;25.91;73.17
39105;BME280;46464;51.154;13.812;2022-08-25T09:54:43;99581.78;;;25.99;73.60
39105;BME280;46464;51.154;13.812;2022-08-25T09:57:29;99577.75;;;26.28;72.12
39105;BME280;46464;51.154;13.812;2022-08-25T09:59:55;99570.88;;;26.48;72.31
39105;BME280;46464;51.154;13.812;2022-08-25T10:02:26;99566.75;;;26.61;70.90
39105;BME280;46464;51.154;13.812;2022-08-25T10:04:54;99564.19;;;26.51;70.80
39105;BME280;46464;51.154;13.812;2022-08-25T10:07:25;99563.81;;;26.54;72.51
39105;BME280;46464;51.154;13.812;2022-08-25T10:10:00;99562.81;;;26.63;70.59
39105;BME280;46464;51.154;13.812;2022-08-25T10:12:38;99562.44;;;26.66;69.80
39105;BME280;46464;51.154;13.812;2022-08-25T10:15:18;99550.94;;;26.79;69.22
39105;BME280;46464;51.154;13.812;2022-08-25T10:17:56;99544.38;;;26.97;66.90
39105;BME280;46464;51.154;13.812;2022-08-25T10:20:27;99548.31;;;27.11;67.01
39105;BME280;46464;51.154;13.812;2022-08-25T10:23:08;99541.91;;;27.10;66.99
39105;BME280;46464;51.154;13.812;2022-08-25T10:25:34;99536.06;;;27.05;67.33
39105;BME280;46464;51.154;13.812;2022-08-25T10:36:11;99525.72;;;27.15;67.51
39105;BME280;46464;51.154;13.812;2022-08-25T10:38:56;99518.00;;;27.02;67.88
39105;BME280;46464;51.154;13.812;2022-08-25T10:46:58;99515.59;;;26.91;69.47
39105;BME280;46464;51.154;13.812;2022-08-25T10:49:40;99509.25;;;26.82;68.95
39105;BME280;46464;51.154;13.812;2022-08-25T10:52:12;99504.25;;;26.94;68.32
39105;BME280;46464;51.154;13.812;2022-08-25T10:57:41;99507.97;;;27.10;67.47
39105;BME280;46464;51.154;13.812;2022-08-25T11:00:14;99500.44;;;26.95;67.13
39105;BME280;46464;51.154;13.812;2022-08-25T11:07:50;99495.53;;;27.22;68.53
39105;BME280;46464;51.154;13.812;2022-08-25T11:10:30;99493.06;;;27.35;66.72
39105;BME280;46464;51.154;13.812;2022-08-25T11:13:03;99487.06;;;27.32;67.01
39105;BME280;46464;51.154;13.812;2022-08-25T11:15:38;99486.34;;;27.38;66.46
39105;BME280;46464;51.154;13.812;2022-08-25T11:18:29;99487.06;;;27.23;66.02
39105;BME280;46464;51.154;13.812;2022-08-25T11:21:08;99473.41;;;27.38;66.25
39105;BME280;46464;51.154;13.812;2022-08-25T11:23:41;99475.03;;;27.64;65.93
39105;BME280;46464;51.154;13.812;2022-08-25T11:26:11;99466.53;;;27.97;64.09
39105;BME280;46464;51.154;13.812;2022-08-25T11:28:48;99474.38;;;28.17;62.69
39105;BME280;46464;51.154;13.812;2022-08-25T11:31:17;99472.06;;;27.97;62.03
39105;BME280;46464;51.154;13.812;2022-08-25T11:33:44;99469.41;;;28.12;63.88
39105;BME280;46464;51.154;13.812;2022-08-25T11:41:19;99463.41;;;28.00;64.30
39105;BME280;46464;51.154;13.812;2022-08-25T11:51:47;99462.19;;;27.80;64.67
39105;BME280;46464;51.154;13.812;2022-08-25T11:54:15;99455.28;;;27.52;66.29
39105;BME280;46464;51.154;13.812;2022-08-25T11:56:55;99458.16;;;27.59;65.89
39105;BME280;46464;51.154;13.812;2022-08-25T12:02:08;99451.94;;;27.89;62.62
39105;BME280;46464;51.154;13.812;2022-08-25T12:04:53;99444.06;;;28.09;62.62
39105;BME280;46464;51.154;13.812;2022-08-25T12:07:22;99441.97;;;28.11;61.51
39105;BME280;46464;51.154;13.812;2022-08-25T12:18:06;99423.22;;;28.44;60.35
39105;BME280;46464;51.154;13.812;2022-08-25T12:23:35;99412.88;;;28.76;58.94
39105;BME280;46464;51.154;13.812;2022-08-25T12:28:55;99421.06;;;28.85;58.25
39105;BME280;46464;51.154;13.812;2022-08-25T12:37:03;99401.41;;;29.09;58.68
39105;BME280;46464;51.154;13.812;2022-08-25T12:39:35;99403.97;;;29.11;58.72
39105;BME280;46464;51.154;13.812;2022-08-25T12:42:03;99413.63;;;29.15;58.18
39105;BME280;46464;51.154;13.812;2022-08-25T12:44:34;99409.03;;;29.22;57.51
39105;BME280;46464;51.154;13.812;2022-08-25T12:47:06;99408.75;;;29.17;56.84
39105;BME280;46464;51.154;13.812;2022-08-25T12:49:33;99406.72;;;29.26;57.48
39105;BME280;46464;51.154;13.812;2022-08-25T12:52:34;99406.09;;;29.24;57.20
39105;BME280;46464;51.154;13.812;2022-08-25T12:57:22;99404.25;;;29.31;56.89
39105;BME280;46464;51.154;13.812;2022-08-25T12:59:55;99403.91;;;29.34;57.63
39105;BME280;46464;51.154;13.812;2022-08-25T13:16:20;99386.53;;;28.50;61.36
39105;BME280;46464;51.154;13.812;2022-08-25T13:18:30;99372.88;;;28.64;60.15
39105;BME280;46464;51.154;13.812;2022-08-25T13:21:17;99377.69;;;28.85;59.11
39105;BME280;46464;51.154;13.812;2022-08-25T13:23:46;99380.34;;;29.08;54.93
39105;BME280;46464;51.154;13.812;2022-08-25T13:26:14;99376.63;;;29.01;55.96
39105;BME280;46464;51.154;13.812;2022-08-25T13:28:41;99373.00;;;29.15;55.32
39105;BME280;46464;51.154;13.812;2022-08-25T13:31:19;99370.28;;;29.22;56.08
39105;BME280;46464;51.154;13.812;2022-08-25T13:33:58;99371.94;;;29.32;54.34
39105;BME280;46464;51.154;13.812;2022-08-25T13:36:26;99356.19;;;29.32;55.42
39105;BME280;46464;51.154;13.812;2022-08-25T13:39:23;99364.16;;;29.42;57.72
39105;BME280;46464;51.154;13.812;2022-08-25T13:42:14;99364.09;;;29.35;58.79
39105;BME280;46464;51.154;13.812;2022-08-25T13:44:41;99358.84;;;29.40;59.15
39105;BME280;46464;51.154;13.812;2022-08-25T13:47:33;99357.31;;;29.38;60.03
39105;BME280;46464;51.154;13.812;2022-08-25T13:52:49;99355.13;;;29.33;59.49
39105;BME280;46464;51.154;13.812;2022-08-25T13:55:18;99345.38;;;29.22;59.28
39105;BME280;46464;51.154;13.812;2022-08-25T13:57:45;99354.41;;;29.09;60.37
39105;BME280;46464;51.154;13.812;2022-08-25T14:00:12;99351.94;;;28.99;59.78
39105;BME280;46464;51.154;13.812;2022-08-25T14:02:56;99349.00;;;28.71;59.55
39105;BME280;46464;51.154;13.812;2022-08-25T14:05:40;99347.03;;;28.42;59.85
39105;BME280;46464;51.154;13.812;2022-08-25T14:08:23;99347.69;;;28.14;61.31
39105;BME280;46464;51.154;13.812;2022-08-25T14:11:08;99349.78;;;28.12;61.87
39105;BME280;46464;51.154;13.812;2022-08-25T14:13:41;99353.91;;;28.31;62.72
39105;BME280;46464;51.154;13.812;2022-08-25T14:16:21;99351.63;;;28.34;62.33
39105;BME280;46464;51.154;13.812;2022-08-25T14:18:54;99348.59;;;28.44;60.94
39105;BME280;46464;51.154;13.812;2022-08-25T14:21:26;99349.44;;;28.60;60.42
39105;BME280;46464;51.154;13.812;2022-08-25T14:23:53;99338.41;;;28.60;60.24
39105;BME280;46464;51.154;13.812;2022-08-25T14:26:20;99343.28;;;28.73;58.53
39105;BME280;46464;51.154;13.812;2022-08-25T14:28:47;99336.41;;;28.69;58.86
39105;BME280;46464;51.154;13.812;2022-08-25T14:31:21;99339.66;;;28.72;59.46
39105;BME280;46464;51.154;13.812;2022-08-25T14:34:00;99337.84;;;28.79;60.40
39105;BME280;46464;51.154;13.812;2022-08-25T14:36:30;99334.03;;;28.80;60.81
39105;BME280;46464;51.154;13.812;2022-08-25T14:38:56;99333.34;;;28.93;60.36
39105;BME280;46464;51.154;13.812;2022-08-25T14:41:23;99324.56;;;28.90;59.73